createdAt,value
2023-03-15T00:00:20.402Z,31.60
2023-03-15T00:00:50.524Z,31.59
2023-03-15T00:01:20.636Z,31.62
2023-03-15T00:01:50.762Z,31.66
2023-03-15T00:02:20.884Z,31.58
2023-03-15T00:02:50.920Z,31.59
2023-03-15T00:03:20.953Z,31.59
2023-03-15T00:03:51.104Z,31.60
2023-03-15T00:04:21.074Z,31.60
2023-03-15T00:04:51.187Z,31.60
2023-03-15T00:05:21.294Z,31.55
2023-03-15T00:05:51.300Z,31.59
2023-03-15T00:06:21.411Z,31.54
2023-03-15T00:06:51.521Z,31.55
2023-03-15T00:07:21.645Z,31.60
2023-03-15T00:07:51.748Z,31.54
2023-03-15T00:08:21.856Z,31.58
2023-03-15T00:08:52.016Z,31.49
2023-03-15T00:09:22.003Z,31.54
2023-03-15T00:09:52.122Z,31.47
2023-03-15T00:10:22.226Z,31.54
2023-03-15T00:10:52.365Z,31.52
2023-03-15T00:11:22.348Z,31.50
2023-03-15T00:11:52.468Z,31.52
2023-03-15T00:12:22.455Z,31.54
2023-03-15T00:12:52.563Z,31.55
2023-03-15T00:13:22.681Z,31.52
2023-03-15T00:13:52.790Z,31.50
2023-03-15T00:14:22.895Z,31.49
2023-03-15T00:14:53.014Z,31.44
2023-03-15T00:15:23.116Z,31.50
2023-03-15T00:15:53.254Z,31.52
2023-03-15T00:16:23.228Z,31.51
2023-03-15T00:16:53.347Z,31.49
2023-03-15T00:17:23.335Z,31.49
2023-03-15T00:17:53.451Z,31.43
2023-03-15T00:18:23.560Z,31.46
2023-03-15T00:18:53.674Z,31.47
2023-03-15T00:19:23.780Z,31.47
2023-03-15T00:19:53.896Z,31.49
2023-03-15T00:20:24.006Z,31.47
2023-03-15T00:20:54.119Z,31.50
2023-03-15T00:21:24.228Z,31.50
2023-03-15T00:21:54.351Z,31.44
2023-03-15T00:22:24.345Z,31.46
2023-03-15T00:22:54.338Z,31.41
2023-03-15T00:23:24.447Z,31.39
2023-03-15T00:23:54.568Z,31.38
2023-03-15T00:24:25.248Z,31.38
2023-03-15T00:24:54.756Z,31.41
2023-03-15T00:25:24.867Z,31.39
2023-03-15T00:25:55.040Z,31.43
2023-03-15T00:26:24.998Z,31.41
2023-03-15T00:26:55.109Z,31.33
2023-03-15T00:27:25.229Z,31.38
2023-03-15T00:27:55.356Z,31.36
2023-03-15T00:28:25.364Z,31.36
2023-03-15T00:28:55.498Z,31.36
2023-03-15T00:29:25.555Z,31.36
2023-03-15T00:29:55.562Z,31.38
2023-03-15T00:30:25.670Z,31.38
2023-03-15T00:30:55.795Z,31.36
2023-03-15T00:31:25.881Z,31.36
2023-03-15T00:31:55.864Z,31.38
2023-03-15T00:32:25.989Z,31.38
2023-03-15T00:32:56.231Z,31.30
2023-03-15T00:33:26.136Z,31.38
2023-03-15T00:33:56.246Z,31.38
2023-03-15T00:34:26.369Z,31.43
2023-03-15T00:34:56.469Z,31.38
2023-03-15T00:35:26.615Z,31.34
2023-03-15T00:35:56.634Z,31.39
2023-03-15T00:36:26.600Z,31.38
2023-03-15T00:36:56.725Z,31.36
2023-03-15T00:37:26.824Z,31.38
2023-03-15T00:37:56.821Z,31.30
2023-03-15T00:38:26.928Z,31.36
2023-03-15T00:38:57.034Z,31.34
2023-03-15T00:39:27.154Z,31.38
2023-03-15T00:39:57.270Z,31.39
2023-03-15T00:40:27.378Z,31.38
2023-03-15T00:40:57.486Z,31.44
2023-03-15T00:41:27.635Z,31.39
2023-03-15T00:41:57.679Z,31.43
2023-03-15T00:42:27.787Z,31.38
2023-03-15T00:42:57.857Z,31.38
2023-03-15T00:43:27.930Z,31.39
2023-03-15T00:43:58.001Z,31.40
2023-03-15T00:44:28.098Z,31.43
2023-03-15T00:44:58.152Z,31.41
2023-03-15T00:45:28.223Z,31.41
2023-03-15T00:45:58.301Z,31.41
2023-03-15T00:46:28.405Z,31.44
2023-03-15T00:46:58.482Z,31.40
2023-03-15T00:47:28.559Z,31.42
2023-03-15T00:47:58.641Z,31.41
2023-03-15T00:48:28.704Z,31.43
2023-03-15T00:48:58.814Z,31.42
2023-03-15T00:49:28.899Z,31.44
2023-03-15T00:49:58.970Z,31.46
2023-03-15T00:50:29.042Z,31.45
2023-03-15T00:50:59.123Z,31.45
2023-03-15T00:51:29.214Z,31.45
2023-03-15T00:51:59.324Z,31.49
2023-03-15T00:52:29.312Z,31.41
2023-03-15T00:52:59.432Z,31.39
2023-03-15T00:53:29.422Z,31.44
2023-03-15T00:53:59.535Z,31.45
2023-03-15T00:54:29.650Z,31.44
2023-03-15T00:54:59.755Z,31.44
2023-03-15T00:55:29.784Z,31.47
2023-03-15T00:55:59.896Z,31.43
2023-03-15T00:56:30.084Z,31.40
2023-03-15T00:57:00.119Z,31.45
2023-03-15T00:57:30.221Z,31.44
2023-03-15T00:58:00.210Z,31.49
2023-03-15T00:58:30.310Z,31.44
2023-03-15T00:59:00.423Z,31.45
2023-03-15T00:59:30.538Z,31.47
2023-03-15T01:00:00.650Z,31.42
2023-03-15T01:00:30.763Z,31.42
2023-03-15T01:01:00.883Z,31.42
2023-03-15T01:01:31.084Z,31.42
2023-03-15T01:02:01.132Z,31.44
2023-03-15T01:02:31.164Z,31.44
2023-03-15T01:03:01.275Z,31.44
2023-03-15T01:03:31.252Z,31.45
2023-03-15T01:04:01.372Z,31.45
2023-03-15T01:04:31.483Z,31.44
2023-03-15T01:05:01.589Z,31.42
2023-03-15T01:05:31.700Z,31.40
2023-03-15T01:06:01.818Z,31.42
2023-03-15T01:06:31.807Z,31.40
2023-03-15T01:07:01.812Z,31.36
2023-03-15T01:07:31.920Z,31.42
2023-03-15T01:08:02.030Z,31.42
2023-03-15T01:08:32.144Z,31.42
2023-03-15T01:09:02.256Z,31.39
2023-03-15T01:09:32.371Z,31.42
2023-03-15T01:10:02.480Z,31.40
2023-03-15T01:10:32.593Z,31.40
2023-03-15T01:11:02.709Z,31.40
2023-03-15T01:11:32.824Z,31.44
2023-03-15T01:12:02.957Z,31.42
2023-03-15T01:12:32.943Z,31.39
2023-03-15T01:13:03.036Z,31.40
2023-03-15T01:13:33.146Z,31.40
2023-03-15T01:14:03.261Z,31.39
2023-03-15T01:14:33.375Z,31.38
2023-03-15T01:15:03.486Z,31.40
2023-03-15T01:15:33.599Z,31.42
2023-03-15T01:16:03.759Z,31.39
2023-03-15T01:16:33.756Z,31.39
2023-03-15T01:17:03.867Z,31.39
2023-03-15T01:17:33.986Z,31.40
2023-03-15T01:18:03.975Z,31.39
2023-03-15T01:18:34.092Z,31.39
2023-03-15T01:19:04.201Z,31.44
2023-03-15T01:19:34.311Z,31.44
2023-03-15T01:20:04.424Z,31.37
2023-03-15T01:20:34.542Z,31.42
2023-03-15T01:21:04.669Z,31.39
2023-03-15T01:21:34.651Z,31.36
2023-03-15T01:22:04.775Z,31.37
2023-03-15T01:22:34.885Z,31.37
2023-03-15T01:23:04.999Z,31.34
2023-03-15T01:23:35.120Z,31.40
2023-03-15T01:24:05.230Z,31.31
2023-03-15T01:24:35.336Z,31.37
2023-03-15T01:25:05.448Z,31.39
2023-03-15T01:25:35.568Z,31.39
2023-03-15T01:26:05.688Z,31.36
2023-03-15T01:26:35.676Z,31.39
2023-03-15T01:27:05.812Z,31.37
2023-03-15T01:27:35.896Z,31.36
2023-03-15T01:28:06.028Z,31.39
2023-03-15T01:28:36.133Z,31.40
2023-03-15T01:29:06.239Z,31.34
2023-03-15T01:29:36.360Z,31.40
2023-03-15T01:30:06.466Z,31.37
2023-03-15T01:30:36.578Z,31.39
2023-03-15T01:31:06.772Z,31.42
2023-03-15T01:31:36.762Z,31.39
2023-03-15T01:32:06.868Z,31.32
2023-03-15T01:32:36.982Z,31.40
2023-03-15T01:33:06.947Z,31.38
2023-03-15T01:33:37.078Z,31.37
2023-03-15T01:34:07.176Z,31.29
2023-03-15T01:34:37.292Z,31.39
2023-03-15T01:35:07.405Z,31.34
2023-03-15T01:35:37.559Z,31.37
2023-03-15T01:36:07.646Z,31.36
2023-03-15T01:36:37.543Z,31.39
2023-03-15T01:37:07.669Z,31.37
2023-03-15T01:37:37.775Z,31.37
2023-03-15T01:38:07.884Z,31.37
2023-03-15T01:38:38.005Z,31.37
2023-03-15T01:39:08.106Z,31.39
2023-03-15T01:39:38.221Z,31.35
2023-03-15T01:40:08.348Z,31.40
2023-03-15T01:40:38.452Z,31.42
2023-03-15T01:41:08.566Z,31.40
2023-03-15T01:41:38.684Z,31.35
2023-03-15T01:42:08.783Z,31.35
2023-03-15T01:42:38.827Z,31.40
2023-03-15T01:43:08.893Z,31.40
2023-03-15T01:43:38.973Z,31.38
2023-03-15T01:44:09.042Z,31.34
2023-03-15T01:44:39.119Z,31.35
2023-03-15T01:45:09.193Z,31.38
2023-03-15T01:45:39.275Z,31.37
2023-03-15T01:46:09.272Z,31.37
2023-03-15T01:46:39.424Z,31.39
2023-03-15T01:47:09.460Z,31.40
2023-03-15T01:47:39.425Z,31.39
2023-03-15T01:48:09.522Z,31.37
2023-03-15T01:48:39.619Z,31.35
2023-03-15T01:49:09.665Z,31.37
2023-03-15T01:49:39.731Z,31.37
2023-03-15T01:50:09.813Z,31.38
2023-03-15T01:50:39.870Z,31.38
2023-03-15T01:51:09.953Z,31.40
2023-03-15T01:51:40.059Z,31.43
2023-03-15T01:52:10.093Z,31.38
2023-03-15T01:52:40.169Z,31.40
2023-03-15T01:53:10.157Z,31.37
2023-03-15T01:53:40.146Z,31.45
2023-03-15T01:54:10.284Z,31.40
2023-03-15T01:54:40.379Z,31.39
2023-03-15T01:55:10.500Z,31.37
2023-03-15T01:55:40.612Z,31.38
2023-03-15T01:56:10.725Z,31.40
2023-03-15T01:56:40.931Z,31.35
2023-03-15T01:57:10.948Z,31.40
2023-03-15T01:57:40.914Z,31.37
2023-03-15T01:58:11.028Z,31.37
2023-03-15T01:58:41.144Z,31.35
2023-03-15T01:59:11.250Z,31.40
2023-03-15T01:59:41.363Z,31.37
2023-03-15T02:00:11.478Z,31.42
2023-03-15T02:00:41.621Z,31.40
2023-03-15T02:01:11.648Z,31.37
2023-03-15T02:01:41.653Z,31.42
2023-03-15T02:02:11.742Z,31.35
2023-03-15T02:02:41.766Z,31.37
2023-03-15T02:03:11.771Z,31.34
2023-03-15T02:03:41.885Z,31.42
2023-03-15T02:04:11.999Z,31.38
2023-03-15T02:04:42.117Z,31.37
2023-03-15T02:05:12.230Z,31.40
2023-03-15T02:05:42.341Z,31.32
2023-03-15T02:06:12.452Z,31.35
2023-03-15T02:06:42.581Z,31.37
2023-03-15T02:07:12.570Z,31.37
2023-03-15T02:07:42.682Z,31.32
2023-03-15T02:08:12.795Z,31.40
2023-03-15T02:08:42.908Z,31.38
2023-03-15T02:09:13.013Z,31.30
2023-03-15T02:09:43.127Z,31.32
2023-03-15T02:10:13.241Z,31.34
2023-03-15T02:10:43.352Z,31.30
2023-03-15T02:11:13.467Z,31.32
2023-03-15T02:11:43.604Z,31.32
2023-03-15T02:12:13.612Z,31.30
2023-03-15T02:12:43.693Z,31.29
2023-03-15T02:13:13.802Z,31.37
2023-03-15T02:13:43.911Z,31.29
2023-03-15T02:14:14.029Z,31.34
2023-03-15T02:14:44.168Z,31.30
2023-03-15T02:15:14.269Z,31.30
2023-03-15T02:15:44.358Z,31.32
2023-03-15T02:16:14.537Z,31.29
2023-03-15T02:16:44.612Z,31.29
2023-03-15T02:17:14.598Z,31.27
2023-03-15T02:17:44.718Z,31.32
2023-03-15T02:18:14.827Z,31.32
2023-03-15T02:18:44.940Z,31.30
2023-03-15T02:19:15.056Z,31.26
2023-03-15T02:19:45.169Z,31.27
2023-03-15T02:20:15.277Z,31.30
2023-03-15T02:20:45.393Z,31.27
2023-03-15T02:21:15.503Z,31.26
2023-03-15T02:21:45.636Z,31.24
2023-03-15T02:22:15.617Z,31.30
2023-03-15T02:22:45.734Z,31.35
2023-03-15T02:23:15.859Z,31.29
2023-03-15T02:23:45.963Z,31.30
2023-03-15T02:24:16.071Z,31.30
2023-03-15T02:24:46.191Z,31.29
2023-03-15T02:25:16.299Z,31.29
2023-03-15T02:25:46.406Z,31.27
2023-03-15T02:26:16.516Z,31.30
2023-03-15T02:26:46.639Z,31.32
2023-03-15T02:27:16.723Z,31.26
2023-03-15T02:27:46.680Z,31.27
2023-03-15T02:28:16.794Z,31.29
2023-03-15T02:28:46.914Z,31.29
2023-03-15T02:29:16.936Z,31.24
2023-03-15T02:29:47.055Z,31.26
2023-03-15T02:30:17.169Z,31.25
2023-03-15T02:30:47.290Z,31.26
2023-03-15T02:31:17.445Z,31.29
2023-03-15T02:31:47.453Z,31.29
2023-03-15T02:32:17.418Z,31.24
2023-03-15T02:32:47.578Z,31.24
2023-03-15T02:33:17.530Z,31.25
2023-03-15T02:33:47.647Z,31.27
2023-03-15T02:34:17.750Z,31.22
2023-03-15T02:34:47.865Z,31.27
2023-03-15T02:35:17.982Z,31.22
2023-03-15T02:35:48.151Z,31.23
2023-03-15T02:36:18.586Z,31.22
2023-03-15T02:36:48.186Z,31.24
2023-03-15T02:37:18.301Z,31.22
2023-03-15T02:37:48.419Z,31.22
2023-03-15T02:38:18.527Z,31.27
2023-03-15T02:38:48.634Z,31.25
2023-03-15T02:39:18.746Z,31.26
2023-03-15T02:39:48.834Z,31.24
2023-03-15T02:40:18.949Z,31.27
2023-03-15T02:40:49.057Z,31.22
2023-03-15T02:41:19.184Z,31.24
2023-03-15T02:41:49.291Z,31.27
2023-03-15T02:42:19.396Z,31.26
2023-03-15T02:42:49.449Z,31.24
2023-03-15T02:43:19.524Z,31.22
2023-03-15T02:43:49.604Z,31.19
2023-03-15T02:44:19.674Z,31.21
2023-03-15T02:44:49.745Z,31.25
2023-03-15T02:45:19.820Z,31.21
2023-03-15T02:45:49.956Z,31.24
2023-03-15T02:46:20.096Z,31.22
2023-03-15T02:46:50.054Z,31.29
2023-03-15T02:47:20.124Z,31.21
2023-03-15T02:47:50.196Z,31.23
2023-03-15T02:48:20.265Z,31.27
2023-03-15T02:48:50.338Z,31.21
2023-03-15T02:49:20.411Z,31.22
2023-03-15T02:49:50.479Z,31.25
2023-03-15T02:50:20.554Z,31.25
2023-03-15T02:50:50.625Z,31.17
2023-03-15T02:51:20.709Z,31.21
2023-03-15T02:51:50.816Z,31.17
2023-03-15T02:52:20.929Z,31.22
2023-03-15T02:52:51.043Z,31.22
2023-03-15T02:53:21.150Z,31.27
2023-03-15T02:53:51.266Z,31.22
2023-03-15T02:54:21.376Z,31.19
2023-03-15T02:54:51.483Z,31.21
2023-03-15T02:55:21.597Z,31.21
2023-03-15T02:55:51.712Z,31.21
2023-03-15T02:56:21.827Z,31.21
2023-03-15T02:56:52.033Z,31.22
2023-03-15T02:57:22.013Z,31.21
2023-03-15T02:57:52.129Z,31.22
2023-03-15T02:58:22.218Z,31.19
2023-03-15T02:58:52.333Z,31.21
2023-03-15T02:59:22.459Z,31.22
2023-03-15T02:59:52.556Z,31.22
2023-03-15T03:00:22.676Z,31.21
2023-03-15T03:00:52.810Z,31.14
2023-03-15T03:01:22.930Z,31.19
2023-03-15T03:01:52.907Z,31.16
2023-03-15T03:02:23.068Z,31.19
2023-03-15T03:02:53.041Z,31.22
2023-03-15T03:03:23.153Z,31.21
2023-03-15T03:03:53.264Z,31.17
2023-03-15T03:04:23.399Z,31.22
2023-03-15T03:04:53.382Z,31.22
2023-03-15T03:05:23.495Z,31.19
2023-03-15T03:05:53.607Z,31.19
2023-03-15T03:06:23.723Z,31.16
2023-03-15T03:06:53.720Z,31.19
2023-03-15T03:07:23.826Z,31.16
2023-03-15T03:07:53.934Z,31.19
2023-03-15T03:08:24.048Z,31.22
2023-03-15T03:08:54.153Z,31.14
2023-03-15T03:09:24.270Z,31.16
2023-03-15T03:09:54.260Z,31.17
2023-03-15T03:10:24.374Z,31.21
2023-03-15T03:10:54.485Z,31.22
2023-03-15T03:11:24.610Z,31.14
2023-03-15T03:11:54.715Z,31.16
2023-03-15T03:12:24.893Z,31.21
2023-03-15T03:12:54.859Z,31.19
2023-03-15T03:13:24.956Z,31.14
2023-03-15T03:13:55.068Z,31.22
2023-03-15T03:14:25.186Z,31.14
2023-03-15T03:14:55.294Z,31.17
2023-03-15T03:15:25.410Z,31.17
2023-03-15T03:15:55.523Z,31.17
2023-03-15T03:16:25.710Z,31.16
2023-03-15T03:16:55.813Z,31.15
2023-03-15T03:17:25.793Z,31.16
2023-03-15T03:17:55.906Z,31.16
2023-03-15T03:18:26.022Z,31.17
2023-03-15T03:18:56.134Z,31.16
2023-03-15T03:19:26.242Z,31.12
2023-03-15T03:19:56.361Z,31.15
2023-03-15T03:20:26.469Z,31.17
2023-03-15T03:20:56.585Z,31.16
2023-03-15T03:21:26.696Z,31.17
2023-03-15T03:21:56.821Z,31.12
2023-03-15T03:22:26.929Z,31.19
2023-03-15T03:22:57.034Z,31.20
2023-03-15T03:23:27.148Z,31.14
2023-03-15T03:23:57.268Z,31.12
2023-03-15T03:24:27.408Z,31.11
2023-03-15T03:24:57.481Z,31.12
2023-03-15T03:25:27.590Z,31.14
2023-03-15T03:25:57.699Z,31.16
2023-03-15T03:26:27.848Z,31.14
2023-03-15T03:26:58.125Z,31.11
2023-03-15T03:27:27.874Z,31.16
2023-03-15T03:27:57.957Z,31.09
2023-03-15T03:28:28.069Z,31.12
2023-03-15T03:28:58.183Z,31.12
2023-03-15T03:29:28.304Z,31.14
2023-03-15T03:29:58.404Z,31.14
2023-03-15T03:30:28.521Z,31.15
2023-03-15T03:30:58.768Z,31.15
2023-03-15T03:31:28.631Z,31.12
2023-03-15T03:31:58.752Z,31.11
2023-03-15T03:32:28.777Z,31.14
2023-03-15T03:32:58.769Z,31.09
2023-03-15T03:33:28.862Z,31.12
2023-03-15T03:33:58.973Z,31.14
2023-03-15T03:34:29.078Z,31.14
2023-03-15T03:34:59.194Z,31.09
2023-03-15T03:35:29.313Z,31.17
2023-03-15T03:35:59.448Z,31.12
2023-03-15T03:36:29.428Z,31.12
2023-03-15T03:36:59.555Z,31.07
2023-03-15T03:37:29.540Z,31.11
2023-03-15T03:37:59.651Z,31.09
2023-03-15T03:38:29.761Z,31.12
2023-03-15T03:38:59.879Z,31.12
2023-03-15T03:39:29.995Z,31.12
2023-03-15T03:40:00.138Z,31.07
2023-03-15T03:40:30.119Z,31.12
2023-03-15T03:41:00.208Z,31.07
2023-03-15T03:41:30.315Z,31.12
2023-03-15T03:42:39.410Z,31.15
2023-03-15T03:43:09.458Z,31.17
2023-03-15T03:43:39.521Z,31.17
2023-03-15T03:44:09.600Z,31.16
2023-03-15T03:44:39.665Z,31.23
2023-03-15T03:45:09.734Z,31.18
2023-03-15T03:45:39.811Z,31.20
2023-03-15T03:46:09.982Z,31.18
2023-03-15T03:46:40.006Z,31.21
2023-03-15T03:47:10.101Z,31.16
2023-03-15T03:47:40.164Z,31.20
2023-03-15T03:48:10.237Z,31.18
2023-03-15T03:48:40.310Z,31.20
2023-03-15T03:49:10.393Z,31.21
2023-03-15T03:49:40.451Z,31.20
2023-03-15T03:50:10.563Z,31.21
2023-03-15T03:50:40.630Z,31.16
2023-03-15T03:51:10.701Z,31.20
2023-03-15T03:51:40.772Z,31.16
2023-03-15T03:52:10.856Z,31.20
2023-03-15T03:52:40.960Z,31.20
2023-03-15T03:53:11.079Z,31.20
2023-03-15T03:53:41.192Z,31.13
2023-03-15T03:54:11.296Z,31.16
2023-03-15T03:54:41.405Z,31.13
2023-03-15T03:55:11.514Z,31.16
2023-03-15T03:55:41.621Z,31.15
2023-03-15T03:56:11.736Z,31.18
2023-03-15T03:56:41.856Z,31.21
2023-03-15T03:57:11.895Z,31.21
2023-03-15T03:57:42.047Z,31.17
2023-03-15T03:58:12.004Z,31.13
2023-03-15T03:58:42.129Z,31.18
2023-03-15T03:59:12.226Z,31.20
2023-03-15T03:59:42.335Z,31.16
2023-03-15T04:00:12.447Z,31.13
2023-03-15T04:00:42.554Z,31.13
2023-03-15T04:01:12.669Z,31.16
2023-03-15T04:01:42.787Z,31.18
2023-03-15T04:02:12.955Z,31.18
2023-03-15T04:02:42.975Z,31.15
2023-03-15T04:03:12.932Z,31.16
2023-03-15T04:03:43.057Z,31.13
2023-03-15T04:04:13.197Z,31.12
2023-03-15T04:04:43.271Z,31.10
2023-03-15T04:05:13.260Z,31.12
2023-03-15T04:05:43.367Z,31.11
2023-03-15T04:06:13.483Z,31.12
2023-03-15T04:06:43.606Z,31.16
2023-03-15T04:07:14.918Z,31.13
2023-03-15T04:07:43.672Z,31.15
2023-03-15T04:08:13.785Z,31.13
2023-03-15T04:08:43.895Z,31.13
2023-03-15T04:09:14.020Z,31.16
2023-03-15T04:09:44.125Z,31.15
2023-03-15T04:10:14.236Z,31.12
2023-03-15T04:10:44.356Z,31.17
2023-03-15T04:11:14.455Z,31.13
2023-03-15T04:11:44.578Z,31.13
2023-03-15T04:12:14.778Z,31.12
2023-03-15T04:12:44.923Z,31.15
2023-03-15T04:13:14.834Z,31.12
2023-03-15T04:13:44.921Z,31.07
2023-03-15T04:14:15.051Z,31.10
2023-03-15T04:14:45.140Z,31.07
2023-03-15T04:15:15.295Z,31.05
2023-03-15T04:15:45.322Z,31.07
2023-03-15T04:16:15.346Z,31.09
2023-03-15T04:16:45.302Z,31.05
2023-03-15T04:17:15.420Z,31.11
2023-03-15T04:17:45.532Z,31.08
2023-03-15T04:18:15.644Z,31.08
2023-03-15T04:18:45.749Z,31.16
2023-03-15T04:19:15.854Z,31.08
2023-03-15T04:19:45.962Z,31.09
2023-03-15T04:20:16.072Z,31.04
2023-03-15T04:20:46.076Z,31.08
2023-03-15T04:21:16.190Z,31.02
2023-03-15T04:21:46.304Z,31.00
2023-03-15T04:22:16.411Z,31.02
2023-03-15T04:22:46.521Z,31.08
2023-03-15T04:23:16.634Z,31.10
2023-03-15T04:23:46.759Z,31.10
2023-03-15T04:24:16.740Z,31.11
2023-03-15T04:24:46.849Z,31.08
2023-03-15T04:25:16.962Z,31.12
2023-03-15T04:25:47.073Z,31.05
2023-03-15T04:26:17.182Z,31.07
2023-03-15T04:26:47.297Z,31.08
2023-03-15T04:27:17.433Z,31.04
2023-03-15T04:27:47.525Z,31.10
2023-03-15T04:28:17.656Z,31.05
2023-03-15T04:28:47.749Z,31.02
2023-03-15T04:29:17.854Z,31.07
2023-03-15T04:29:47.968Z,31.05
2023-03-15T04:30:18.072Z,31.08
2023-03-15T04:30:48.243Z,31.04
2023-03-15T04:31:18.248Z,31.07
2023-03-15T04:31:48.341Z,31.09
2023-03-15T04:32:18.454Z,31.12
2023-03-15T04:32:48.601Z,31.08
2023-03-15T04:33:18.585Z,31.07
2023-03-15T04:33:48.697Z,31.08
2023-03-15T04:34:18.813Z,31.00
2023-03-15T04:34:48.915Z,31.07
2023-03-15T04:35:19.029Z,31.09
2023-03-15T04:35:49.143Z,31.05
2023-03-15T04:36:19.243Z,31.05
2023-03-15T04:36:49.550Z,31.04
2023-03-15T04:37:19.440Z,31.04
2023-03-15T04:37:49.428Z,31.04
2023-03-15T04:38:19.549Z,31.04
2023-03-15T04:38:49.652Z,30.99
2023-03-15T04:39:19.764Z,30.86
2023-03-15T04:39:49.882Z,30.88
2023-03-15T04:40:19.993Z,30.87
2023-03-15T04:40:50.104Z,30.80
2023-03-15T04:41:20.218Z,30.89
2023-03-15T04:41:50.345Z,30.79
2023-03-15T04:42:20.438Z,30.76
2023-03-15T04:42:50.515Z,30.76
2023-03-15T04:43:20.619Z,30.81
2023-03-15T04:43:50.669Z,30.70
2023-03-15T04:44:20.764Z,30.70
2023-03-15T04:44:50.833Z,30.83
2023-03-15T04:45:20.917Z,30.77
2023-03-15T04:45:50.986Z,30.75
2023-03-15T04:46:22.956Z,30.72
2023-03-15T04:46:51.791Z,30.71
2023-03-15T04:47:21.067Z,30.68
2023-03-15T04:47:51.152Z,30.69
2023-03-15T04:48:21.217Z,30.63
2023-03-15T04:48:51.308Z,30.69
2023-03-15T04:49:21.384Z,30.64
2023-03-15T04:49:51.452Z,30.58
2023-03-15T04:50:21.518Z,30.54
2023-03-15T04:50:51.593Z,30.58
2023-03-15T04:51:21.980Z,30.57
2023-03-15T04:51:51.656Z,30.59
2023-03-15T04:52:21.745Z,30.64
2023-03-15T04:52:51.860Z,30.58
2023-03-15T04:53:21.979Z,30.66
2023-03-15T04:53:52.089Z,30.80
2023-03-15T04:54:22.198Z,30.83
2023-03-15T04:54:52.316Z,30.89
2023-03-15T04:55:22.422Z,30.96
2023-03-15T04:55:52.532Z,30.91
2023-03-15T04:56:22.659Z,30.90
2023-03-15T04:56:52.764Z,30.89
2023-03-15T04:57:22.753Z,30.87
2023-03-15T04:57:52.908Z,30.86
2023-03-15T04:58:22.917Z,30.98
2023-03-15T04:58:52.889Z,30.97
2023-03-15T04:59:23.006Z,31.00
2023-03-15T04:59:53.126Z,30.96
2023-03-15T05:00:23.245Z,31.07
2023-03-15T05:00:53.473Z,31.17
2023-03-15T05:01:23.347Z,31.34
2023-03-15T05:01:53.738Z,31.33
2023-03-15T05:02:23.515Z,31.29
2023-03-15T05:02:53.522Z,31.28
2023-03-15T05:03:23.636Z,31.29
2023-03-15T05:03:53.754Z,31.23
2023-03-15T05:04:23.860Z,31.18
2023-03-15T05:04:53.974Z,31.23
2023-03-15T05:05:24.118Z,31.22
2023-03-15T05:05:54.208Z,31.22
2023-03-15T05:06:24.318Z,31.27
2023-03-15T05:06:54.431Z,31.20
2023-03-15T05:07:24.544Z,31.19
2023-03-15T05:07:54.652Z,31.13
2023-03-15T05:08:24.795Z,31.10
2023-03-15T05:08:54.757Z,31.13
2023-03-15T05:09:24.884Z,31.18
2023-03-15T05:09:54.983Z,31.13
2023-03-15T05:10:25.097Z,31.10
2023-03-15T05:10:55.214Z,31.10
2023-03-15T05:11:25.328Z,31.05
2023-03-15T05:11:55.439Z,31.06
2023-03-15T05:12:25.550Z,31.07
2023-03-15T05:12:55.662Z,31.04
2023-03-15T05:13:25.795Z,31.00
2023-03-15T05:13:55.917Z,31.00
2023-03-15T05:14:25.884Z,31.00
2023-03-15T05:14:56.052Z,30.92
2023-03-15T05:15:26.099Z,30.81
2023-03-15T05:15:56.155Z,30.74
2023-03-15T05:16:26.157Z,30.88
2023-03-15T05:16:56.289Z,30.92
2023-03-15T05:17:26.342Z,30.73
2023-03-15T05:17:56.333Z,30.85
2023-03-15T05:18:26.511Z,30.94
2023-03-15T05:18:56.512Z,31.04
2023-03-15T05:19:26.702Z,31.15
2023-03-15T05:19:56.746Z,31.45
2023-03-15T05:20:26.973Z,31.55
2023-03-15T05:20:56.901Z,31.57
2023-03-15T05:21:26.895Z,31.62
2023-03-15T05:21:57.122Z,31.59
2023-03-15T05:22:27.112Z,31.65
2023-03-15T05:22:57.243Z,31.62
2023-03-15T05:23:27.319Z,31.54
2023-03-15T05:23:57.307Z,31.85
2023-03-15T05:24:27.550Z,31.86
2023-03-15T05:24:57.440Z,31.74
2023-03-15T05:25:27.538Z,31.80
2023-03-15T05:25:57.525Z,31.77
2023-03-15T05:26:27.690Z,31.71
2023-03-15T05:26:57.690Z,31.79
2023-03-15T05:27:27.799Z,31.90
2023-03-15T05:27:57.990Z,31.73
2023-03-15T05:28:27.975Z,31.76
2023-03-15T05:28:58.128Z,31.86
2023-03-15T05:29:28.092Z,31.79
2023-03-15T05:29:58.236Z,31.78
2023-03-15T05:30:28.249Z,31.70
2023-03-15T05:31:00.489Z,31.76
2023-03-15T05:31:28.332Z,31.69
2023-03-15T05:31:58.373Z,31.70
2023-03-15T05:32:28.449Z,31.67
2023-03-15T05:32:58.470Z,31.66
2023-03-15T05:33:28.477Z,31.63
2023-03-15T05:33:58.598Z,31.55
2023-03-15T05:34:28.716Z,31.63
2023-03-15T05:34:58.822Z,31.55
2023-03-15T05:35:28.960Z,31.50
2023-03-15T05:35:58.970Z,31.54
2023-03-15T05:36:28.971Z,31.49
2023-03-15T05:36:59.092Z,31.50
2023-03-15T05:37:29.205Z,31.46
2023-03-15T05:37:59.314Z,31.39
2023-03-15T05:38:29.431Z,31.36
2023-03-15T05:38:59.541Z,31.33
2023-03-15T05:39:29.654Z,31.36
2023-03-15T05:39:59.771Z,31.30
2023-03-15T05:40:29.881Z,31.34
2023-03-15T05:40:59.988Z,31.38
2023-03-15T05:41:31.599Z,31.24
2023-03-15T05:42:00.189Z,31.31
2023-03-15T05:42:30.267Z,31.21
2023-03-15T05:43:00.349Z,31.23
2023-03-15T05:43:30.432Z,31.29
2023-03-15T05:44:00.561Z,31.16
2023-03-15T05:44:30.512Z,31.21
2023-03-15T05:45:00.639Z,31.17
2023-03-15T05:45:30.720Z,31.25
2023-03-15T05:46:00.829Z,31.31
2023-03-15T05:46:30.970Z,31.31
2023-03-15T05:47:00.931Z,31.30
2023-03-15T05:47:32.539Z,31.28
2023-03-15T05:48:01.115Z,31.20
2023-03-15T05:48:31.224Z,31.23
2023-03-15T05:49:01.203Z,31.20
2023-03-15T05:49:31.272Z,31.18
2023-03-15T05:50:01.361Z,31.17
2023-03-15T05:50:31.436Z,31.14
2023-03-15T05:51:01.509Z,31.09
2023-03-15T05:51:31.622Z,31.10
2023-03-15T05:52:02.133Z,31.04
2023-03-15T05:52:31.792Z,31.06
2023-03-15T05:53:01.806Z,31.06
2023-03-15T05:53:31.829Z,31.01
2023-03-15T05:54:01.878Z,30.96
2023-03-15T05:54:31.874Z,31.00
2023-03-15T05:55:01.989Z,30.96
2023-03-15T05:55:32.091Z,30.94
2023-03-15T05:56:02.224Z,30.87
2023-03-15T05:57:11.292Z,30.88
2023-03-15T05:57:41.363Z,30.85
2023-03-15T05:58:11.434Z,30.89
2023-03-15T05:58:41.513Z,30.85
2023-03-15T05:59:11.605Z,30.80
2023-03-15T05:59:41.660Z,30.77
2023-03-15T06:00:11.737Z,30.74
2023-03-15T06:00:41.820Z,30.70
2023-03-15T06:01:11.904Z,30.58
2023-03-15T06:01:41.981Z,30.48
2023-03-15T06:02:12.078Z,30.33
2023-03-15T06:02:42.175Z,30.33
2023-03-15T06:03:12.234Z,30.32
2023-03-15T06:03:42.449Z,30.35
2023-03-15T06:04:12.462Z,30.04
2023-03-15T06:04:42.326Z,30.22
2023-03-15T06:05:12.412Z,30.25
2023-03-15T06:05:42.519Z,30.09
2023-03-15T06:06:12.612Z,30.22
2023-03-15T06:06:42.675Z,30.17
2023-03-15T06:07:13.143Z,30.17
2023-03-15T06:07:42.834Z,29.58
2023-03-15T06:08:12.914Z,30.15
2023-03-15T06:08:43.033Z,30.40
2023-03-15T06:09:13.145Z,30.48
2023-03-15T06:09:43.254Z,30.53
2023-03-15T06:10:13.370Z,30.54
2023-03-15T06:10:43.494Z,30.59
2023-03-15T06:11:13.482Z,30.62
2023-03-15T06:11:43.607Z,30.64
2023-03-15T06:12:13.726Z,30.66
2023-03-15T06:12:43.827Z,30.69
2023-03-15T06:13:15.556Z,30.66
2023-03-15T06:13:44.021Z,30.66
2023-03-15T06:14:14.154Z,30.63
2023-03-15T06:14:44.249Z,30.48
2023-03-15T06:15:14.380Z,30.55
2023-03-15T06:15:44.357Z,30.60
2023-03-15T06:16:14.555Z,30.58
2023-03-15T06:16:44.663Z,30.57
2023-03-15T06:17:14.539Z,30.56
2023-03-15T06:17:44.676Z,30.51
2023-03-15T06:18:14.654Z,30.56
2023-03-15T06:18:44.764Z,30.52
2023-03-15T06:19:14.754Z,30.64
2023-03-15T06:19:44.864Z,30.48
2023-03-15T06:20:14.996Z,30.46
2023-03-15T06:20:44.981Z,30.47
2023-03-15T06:21:15.087Z,30.40
2023-03-15T06:21:45.210Z,30.41
2023-03-15T06:22:15.229Z,30.38
2023-03-15T06:22:45.207Z,30.41
2023-03-15T06:23:15.336Z,30.38
2023-03-15T06:23:45.426Z,30.28
2023-03-15T06:24:15.553Z,30.30
2023-03-15T06:24:45.660Z,30.30
2023-03-15T06:25:15.772Z,30.24
2023-03-15T06:25:45.874Z,30.30
2023-03-15T06:26:15.998Z,30.22
2023-03-15T06:26:46.106Z,30.26
2023-03-15T06:27:16.235Z,30.25
2023-03-15T06:27:46.219Z,30.27
2023-03-15T06:28:16.336Z,30.43
2023-03-15T06:28:46.452Z,30.30